Casagiove, Italy

12:04 PM CET on February 07, 2016 (GMT +0100)
Meteo TelePrima TV | | Change Station
CLOSE
Current Station
Personal Weather Station
Location: Caserta Nord, (Ce)
Elevation: 150 ft
Nearby Weather Stations

Elev 150 ft 41.08 °N, 14.30 °E | Updated 9 seconds ago

Mostly Cloudy
Mostly Cloudy
56.2 °F
Feels Like 56.2 °F
N
0.0
Wind Variable Wind from ESE
Gusts 0.0 mph

Today
High -- | Low -- °F
--% Chance of Precip.
Yesterday
High -- | Low -- °F
Precip. -- in
Pressure 30.18 in
Visibility 6.2 miles
Clouds Scattered Clouds 3000 ft
Mostly Cloudy 7000 ft
Dew Point 41 °F
Humidity 57%
Rainfall 0.00 in
Snow Depth Not available.
7:08 AM 5:26 PM
Waning Crescent, 2% visible
METAR LIRN 071050Z 19006KT 160V230 9999 SCT030 BKN070 14/06 Q1022 NOSIG
Pressure 30.18 in
Visibility 6.2 miles
Clouds Scattered Clouds 3000 ft
Mostly Cloudy 7000 ft
Dew Point 41 °F
Humidity 57%
Rainfall 0.00 in
Snow Depth Not available.
7:08 AM 5:26 PM
Waning Crescent, 2% visible
METAR LIRN 071050Z 19006KT 160V230 9999 SCT030 BKN070 14/06 Q1022 NOSIG

10-Day Weather Forecast

Almanac

Astronomy

Feb. 07, 2016 Rise Set
Actual Time
Civil Twilight
Nautical Twilight
Astronomical Twilight
Moon
Length of Visible Light
Length of Day
Tomorrow will be .
, % of the Moon is Illuminated

Today's Extremes

Country Highs Country Lows

Community

WunderPhotos

Upload Photos

1,891,170 photos uploaded!

WunderBlog® & News

Nearby

Air Quality

  Air Quality AQ Index Pollutant
Not available.

Snow Depth

Station Depth Elevation

Earthquake Activity

City Distance Mag. Time & Date
Minimum magnitude displayed is 2.5.

Coastal Water Temperatures

Place Temperature

Stations

Nearby Weather Stations

Station Location Temp. Windchill Dew Point Humidity Wind Precip. Elev Updated Type